Terminal Aerodrome Forecast
Issued by NWS

Home | Current Version | Previous Version | Text Only | Print | Product List | Glossary On
Versions: 1 2 3 4 5 6 7 8 9 10 11 12 13 14 15 16
000
FTUS43 KBIS 252300
TAFJMS
TAF
KJMS 252320Z 2600/2624 11010KT 1/2SM SN OVC007
     FM260400 05016G24KT 1/2SM SN BLSN OVC008
     FM260600 02021G30KT 2SM -SN BLSN OVC012
     FM260800 36021G30KT 4SM BLSN OVC020
     FM261000 35018G26KT P6SM BKN045
     FM261400 34012KT P6SM SCT250=

USA.gov is the U.S. government's official web portal to all federal, state and local government web resources and services.